Terminal Aerodrome Forecast
Issued by NWS Central Illinois

Home | Current Version | Previous Version | Text Only | Print | Product List | Glossary On
Versions: 1 2 3 4 5 6 7 8 9 10 11 12 13 14 15
000
FTUS43 KILX 252327
TAFSPI
TAF
KSPI 252327Z 2600/2624 VRB06KT 3SM -TSRA BR OVC035CB
     FM260100 VRB06KT P6SM VCSH SCT040 BKN120
     FM260600 VRB04KT P6SM BKN250
     FM261500 24006KT P6SM FEW250=

USA.gov is the U.S. government's official web portal to all federal, state and local government web resources and services.